sensor_id;sensor_type;location;lat;lon;timestamp;P1;durP1;ratioP1;P2;durP2;ratioP2
43990;SDS011;29654;50.784;20.604;2023-03-14T00:02:55;5.63;;;4.60;;
43990;SDS011;29654;50.784;20.604;2023-03-14T00:07:58;7.35;;;5.28;;
43990;SDS011;29654;50.784;20.604;2023-03-14T00:13:02;7.70;;;4.95;;
43990;SDS011;29654;50.784;20.604;2023-03-14T00:18:04;5.72;;;4.18;;
43990;SDS011;29654;50.784;20.604;2023-03-14T00:23:07;7.20;;;4.40;;
43990;SDS011;29654;50.784;20.604;2023-03-14T00:28:11;4.68;;;4.00;;
43990;SDS011;29654;50.784;20.604;2023-03-14T00:33:14;5.90;;;3.47;;
43990;SDS011;29654;50.784;20.604;2023-03-14T00:38:16;4.00;;;3.55;;
43990;SDS011;29654;50.784;20.604;2023-03-14T00:43:20;4.93;;;3.15;;
43990;SDS011;29654;50.784;20.604;2023-03-14T00:48:23;3.28;;;2.95;;
43990;SDS011;29654;50.784;20.604;2023-03-14T00:53:26;4.57;;;3.42;;
43990;SDS011;29654;50.784;20.604;2023-03-14T00:58:30;4.40;;;3.60;;
43990;SDS011;29654;50.784;20.604;2023-03-14T01:03:32;4.28;;;3.42;;
43990;SDS011;29654;50.784;20.604;2023-03-14T01:08:35;6.60;;;4.00;;
43990;SDS011;29654;50.784;20.604;2023-03-14T01:13:39;5.18;;;3.58;;
43990;SDS011;29654;50.784;20.604;2023-03-14T01:18:42;5.63;;;3.75;;
43990;SDS011;29654;50.784;20.604;2023-03-14T01:23:46;7.18;;;3.65;;
43990;SDS011;29654;50.784;20.604;2023-03-14T01:28:52;5.03;;;3.50;;
43990;SDS011;29654;50.784;20.604;2023-03-14T01:33:56;7.53;;;3.42;;
43990;SDS011;29654;50.784;20.604;2023-03-14T01:38:59;3.75;;;3.30;;
43990;SDS011;29654;50.784;20.604;2023-03-14T01:44:03;5.03;;;3.88;;
43990;SDS011;29654;50.784;20.604;2023-03-14T01:49:07;3.92;;;3.53;;
43990;SDS011;29654;50.784;20.604;2023-03-14T01:54:19;3.88;;;3.50;;
43990;SDS011;29654;50.784;20.604;2023-03-14T01:59:28;4.13;;;3.20;;
43990;SDS011;29654;50.784;20.604;2023-03-14T02:04:32;6.35;;;3.80;;
43990;SDS011;29654;50.784;20.604;2023-03-14T02:09:38;3.85;;;3.50;;
43990;SDS011;29654;50.784;20.604;2023-03-14T02:14:45;4.25;;;3.20;;
43990;SDS011;29654;50.784;20.604;2023-03-14T02:20:20;5.90;;;3.40;;
43990;SDS011;29654;50.784;20.604;2023-03-14T02:25:36;5.40;;;3.05;;
43990;SDS011;29654;50.784;20.604;2023-03-14T02:30:46;4.65;;;3.70;;
43990;SDS011;29654;50.784;20.604;2023-03-14T02:35:50;3.85;;;3.42;;
43990;SDS011;29654;50.784;20.604;2023-03-14T02:40:59;4.15;;;3.58;;
43990;SDS011;29654;50.784;20.604;2023-03-14T02:46:07;4.07;;;3.22;;
43990;SDS011;29654;50.784;20.604;2023-03-14T02:51:13;3.83;;;3.40;;
43990;SDS011;29654;50.784;20.604;2023-03-14T02:56:19;3.67;;;3.17;;
43990;SDS011;29654;50.784;20.604;2023-03-14T03:01:23;3.65;;;3.30;;
43990;SDS011;29654;50.784;20.604;2023-03-14T03:06:26;3.80;;;3.50;;
43990;SDS011;29654;50.784;20.604;2023-03-14T03:11:28;5.32;;;3.28;;
43990;SDS011;29654;50.784;20.604;2023-03-14T03:16:33;4.03;;;3.60;;
43990;SDS011;29654;50.784;20.604;2023-03-14T03:21:36;3.80;;;3.50;;
43990;SDS011;29654;50.784;20.604;2023-03-14T03:26:38;3.60;;;3.30;;
43990;SDS011;29654;50.784;20.604;2023-03-14T03:31:45;5.78;;;4.38;;
43990;SDS011;29654;50.784;20.604;2023-03-14T03:36:48;3.60;;;3.28;;
43990;SDS011;29654;50.784;20.604;2023-03-14T03:41:50;4.35;;;3.50;;
43990;SDS011;29654;50.784;20.604;2023-03-14T03:46:55;6.03;;;3.83;;
43990;SDS011;29654;50.784;20.604;2023-03-14T03:51:58;3.80;;;3.03;;
43990;SDS011;29654;50.784;20.604;2023-03-14T03:57:01;3.90;;;3.15;;
43990;SDS011;29654;50.784;20.604;2023-03-14T04:02:05;3.50;;;3.20;;
43990;SDS011;29654;50.784;20.604;2023-03-14T04:07:09;3.53;;;3.17;;
43990;SDS011;29654;50.784;20.604;2023-03-14T04:12:14;5.55;;;4.57;;
43990;SDS011;29654;50.784;20.604;2023-03-14T04:17:35;7.68;;;6.88;;
43990;SDS011;29654;50.784;20.604;2023-03-14T04:22:38;9.38;;;6.63;;
43990;SDS011;29654;50.784;20.604;2023-03-14T04:27:41;3.70;;;3.33;;
43990;SDS011;29654;50.784;20.604;2023-03-14T04:32:53;6.78;;;5.65;;
43990;SDS011;29654;50.784;20.604;2023-03-14T04:37:58;19.50;;;13.98;;
43990;SDS011;29654;50.784;20.604;2023-03-14T04:43:04;7.97;;;6.57;;
43990;SDS011;29654;50.784;20.604;2023-03-14T04:48:08;5.30;;;4.53;;
43990;SDS011;29654;50.784;20.604;2023-03-14T04:53:11;4.88;;;4.13;;
43990;SDS011;29654;50.784;20.604;2023-03-14T04:58:17;3.55;;;3.05;;
43990;SDS011;29654;50.784;20.604;2023-03-14T05:03:23;5.07;;;3.28;;
43990;SDS011;29654;50.784;20.604;2023-03-14T05:08:44;4.03;;;3.33;;
43990;SDS011;29654;50.784;20.604;2023-03-14T05:14:07;4.15;;;3.58;;
43990;SDS011;29654;50.784;20.604;2023-03-14T05:19:33;4.68;;;3.40;;
43990;SDS011;29654;50.784;20.604;2023-03-14T05:24:45;4.35;;;3.42;;
43990;SDS011;29654;50.784;20.604;2023-03-14T05:30:06;4.32;;;3.88;;
43990;SDS011;29654;50.784;20.604;2023-03-14T05:35:28;5.18;;;3.72;;
43990;SDS011;29654;50.784;20.604;2023-03-14T05:40:49;4.43;;;3.58;;
43990;SDS011;29654;50.784;20.604;2023-03-14T05:46:12;6.00;;;4.45;;
43990;SDS011;29654;50.784;20.604;2023-03-14T05:51:31;9.07;;;6.75;;
43990;SDS011;29654;50.784;20.604;2023-03-14T05:56:48;6.65;;;4.53;;
43990;SDS011;29654;50.784;20.604;2023-03-14T06:01:51;5.22;;;4.30;;
43990;SDS011;29654;50.784;20.604;2023-03-14T06:06:59;6.35;;;4.60;;
43990;SDS011;29654;50.784;20.604;2023-03-14T06:12:02;5.50;;;4.00;;
43990;SDS011;29654;50.784;20.604;2023-03-14T06:17:11;5.03;;;3.90;;
43990;SDS011;29654;50.784;20.604;2023-03-14T06:22:24;4.20;;;3.28;;
43990;SDS011;29654;50.784;20.604;2023-03-14T06:27:28;4.32;;;3.53;;
43990;SDS011;29654;50.784;20.604;2023-03-14T06:32:32;4.35;;;3.50;;
43990;SDS011;29654;50.784;20.604;2023-03-14T06:37:41;3.72;;;3.38;;
43990;SDS011;29654;50.784;20.604;2023-03-14T06:42:44;3.85;;;3.45;;
43990;SDS011;29654;50.784;20.604;2023-03-14T06:47:49;3.17;;;2.80;;
43990;SDS011;29654;50.784;20.604;2023-03-14T06:52:58;3.42;;;3.03;;
43990;SDS011;29654;50.784;20.604;2023-03-14T06:58:01;3.83;;;3.13;;
43990;SDS011;29654;50.784;20.604;2023-03-14T07:03:06;4.70;;;3.13;;
43990;SDS011;29654;50.784;20.604;2023-03-14T07:08:14;4.40;;;3.35;;
43990;SDS011;29654;50.784;20.604;2023-03-14T07:13:17;4.15;;;2.90;;
43990;SDS011;29654;50.784;20.604;2023-03-14T07:18:31;6.25;;;3.22;;
43990;SDS011;29654;50.784;20.604;2023-03-14T07:23:39;4.18;;;3.20;;
43990;SDS011;29654;50.784;20.604;2023-03-14T07:28:42;3.72;;;2.78;;
43990;SDS011;29654;50.784;20.604;2023-03-14T07:33:49;4.18;;;2.92;;
43990;SDS011;29654;50.784;20.604;2023-03-14T07:38:55;3.92;;;2.90;;
43990;SDS011;29654;50.784;20.604;2023-03-14T07:44:23;3.40;;;2.83;;
43990;SDS011;29654;50.784;20.604;2023-03-14T07:49:26;4.85;;;3.22;;
43990;SDS011;29654;50.784;20.604;2023-03-14T07:54:30;4.78;;;3.15;;
43990;SDS011;29654;50.784;20.604;2023-03-14T07:59:33;4.95;;;3.30;;
43990;SDS011;29654;50.784;20.604;2023-03-14T08:04:35;3.47;;;2.80;;
43990;SDS011;29654;50.784;20.604;2023-03-14T08:09:39;3.17;;;2.70;;
43990;SDS011;29654;50.784;20.604;2023-03-14T08:14:42;4.82;;;2.72;;
43990;SDS011;29654;50.784;20.604;2023-03-14T08:19:45;3.65;;;3.05;;
43990;SDS011;29654;50.784;20.604;2023-03-14T08:24:49;3.15;;;2.83;;
43990;SDS011;29654;50.784;20.604;2023-03-14T08:29:51;4.00;;;3.03;;
43990;SDS011;29654;50.784;20.604;2023-03-14T08:34:54;3.45;;;2.85;;
43990;SDS011;29654;50.784;20.604;2023-03-14T08:39:57;4.13;;;2.50;;
43990;SDS011;29654;50.784;20.604;2023-03-14T08:45:00;4.57;;;2.50;;
43990;SDS011;29654;50.784;20.604;2023-03-14T08:50:03;3.13;;;2.53;;
43990;SDS011;29654;50.784;20.604;2023-03-14T08:55:09;3.83;;;2.47;;
43990;SDS011;29654;50.784;20.604;2023-03-14T09:00:12;3.40;;;2.05;;
43990;SDS011;29654;50.784;20.604;2023-03-14T09:05:17;2.10;;;1.90;;
43990;SDS011;29654;50.784;20.604;2023-03-14T09:10:21;5.55;;;2.15;;
43990;SDS011;29654;50.784;20.604;2023-03-14T09:15:23;3.28;;;2.17;;
43990;SDS011;29654;50.784;20.604;2023-03-14T09:20:26;2.60;;;2.03;;
43990;SDS011;29654;50.784;20.604;2023-03-14T09:25:30;2.55;;;1.95;;
43990;SDS011;29654;50.784;20.604;2023-03-14T09:30:33;2.35;;;2.15;;
43990;SDS011;29654;50.784;20.604;2023-03-14T09:35:35;4.05;;;2.50;;
43990;SDS011;29654;50.784;20.604;2023-03-14T09:40:40;3.53;;;1.92;;
43990;SDS011;29654;50.784;20.604;2023-03-14T09:45:43;3.65;;;3.13;;
43990;SDS011;29654;50.784;20.604;2023-03-14T09:50:49;2.35;;;2.15;;
43990;SDS011;29654;50.784;20.604;2023-03-14T09:55:55;3.47;;;2.28;;
43990;SDS011;29654;50.784;20.604;2023-03-14T10:00:59;3.35;;;2.33;;
43990;SDS011;29654;50.784;20.604;2023-03-14T10:06:08;2.95;;;2.17;;
43990;SDS011;29654;50.784;20.604;2023-03-14T10:11:16;3.47;;;3.00;;
43990;SDS011;29654;50.784;20.604;2023-03-14T10:16:22;2.90;;;2.60;;
43990;SDS011;29654;50.784;20.604;2023-03-14T10:21:35;2.97;;;2.60;;
43990;SDS011;29654;50.784;20.604;2023-03-14T10:26:41;3.17;;;2.65;;
43990;SDS011;29654;50.784;20.604;2023-03-14T10:31:46;3.83;;;2.67;;
43990;SDS011;29654;50.784;20.604;2023-03-14T10:36:52;2.75;;;2.33;;
43990;SDS011;29654;50.784;20.604;2023-03-14T10:42:03;3.15;;;2.28;;
43990;SDS011;29654;50.784;20.604;2023-03-14T10:47:15;3.33;;;2.60;;
43990;SDS011;29654;50.784;20.604;2023-03-14T10:52:22;5.60;;;2.75;;
43990;SDS011;29654;50.784;20.604;2023-03-14T10:57:27;5.10;;;3.10;;
43990;SDS011;29654;50.784;20.604;2023-03-14T11:02:43;3.47;;;2.83;;
43990;SDS011;29654;50.784;20.604;2023-03-14T11:08:04;4.45;;;3.03;;
43990;SDS011;29654;50.784;20.604;2023-03-14T11:13:16;5.35;;;2.95;;
43990;SDS011;29654;50.784;20.604;2023-03-14T11:18:36;3.35;;;2.65;;
43990;SDS011;29654;50.784;20.604;2023-03-14T11:23:52;3.67;;;2.50;;
43990;SDS011;29654;50.784;20.604;2023-03-14T11:29:17;3.30;;;2.45;;
43990;SDS011;29654;50.784;20.604;2023-03-14T11:34:26;2.95;;;2.40;;
43990;SDS011;29654;50.784;20.604;2023-03-14T11:39:34;3.47;;;2.40;;
43990;SDS011;29654;50.784;20.604;2023-03-14T11:44:44;2.78;;;2.45;;
43990;SDS011;29654;50.784;20.604;2023-03-14T11:49:50;2.63;;;2.20;;
43990;SDS011;29654;50.784;20.604;2023-03-14T11:54:58;3.17;;;2.20;;
43990;SDS011;29654;50.784;20.604;2023-03-14T12:00:13;3.53;;;2.72;;
43990;SDS011;29654;50.784;20.604;2023-03-14T12:05:23;2.88;;;2.60;;
43990;SDS011;29654;50.784;20.604;2023-03-14T12:10:42;3.60;;;2.42;;
43990;SDS011;29654;50.784;20.604;2023-03-14T12:15:54;2.75;;;2.40;;
43990;SDS011;29654;50.784;20.604;2023-03-14T12:20:59;2.95;;;2.47;;
43990;SDS011;29654;50.784;20.604;2023-03-14T12:26:13;5.13;;;2.45;;
43990;SDS011;29654;50.784;20.604;2023-03-14T12:31:43;3.13;;;2.28;;
43990;SDS011;29654;50.784;20.604;2023-03-14T12:36:51;3.15;;;2.28;;
43990;SDS011;29654;50.784;20.604;2023-03-14T12:42:08;2.85;;;2.60;;
43990;SDS011;29654;50.784;20.604;2023-03-14T13:04:44;2.97;;;2.53;;
43990;SDS011;29654;50.784;20.604;2023-03-14T13:09:53;2.70;;;2.25;;
43990;SDS011;29654;50.784;20.604;2023-03-14T13:15:20;5.22;;;2.90;;
43990;SDS011;29654;50.784;20.604;2023-03-14T13:20:30;4.53;;;3.00;;
43990;SDS011;29654;50.784;20.604;2023-03-14T13:25:36;2.88;;;2.40;;
43990;SDS011;29654;50.784;20.604;2023-03-14T13:30:39;3.22;;;2.95;;
43990;SDS011;29654;50.784;20.604;2023-03-14T13:35:45;4.60;;;2.92;;
43990;SDS011;29654;50.784;20.604;2023-03-14T13:40:51;4.55;;;2.95;;
43990;SDS011;29654;50.784;20.604;2023-03-14T13:46:03;4.57;;;3.50;;
43990;SDS011;29654;50.784;20.604;2023-03-14T13:51:11;5.53;;;3.42;;
43990;SDS011;29654;50.784;20.604;2023-03-14T13:56:15;6.13;;;3.70;;
43990;SDS011;29654;50.784;20.604;2023-03-14T14:01:20;4.80;;;3.67;;
43990;SDS011;29654;50.784;20.604;2023-03-14T14:06:28;4.85;;;3.70;;
43990;SDS011;29654;50.784;20.604;2023-03-14T14:11:37;5.63;;;3.60;;
43990;SDS011;29654;50.784;20.604;2023-03-14T14:16:44;6.18;;;3.97;;
43990;SDS011;29654;50.784;20.604;2023-03-14T14:21:50;5.38;;;3.80;;
43990;SDS011;29654;50.784;20.604;2023-03-14T14:26:54;4.13;;;2.95;;
43990;SDS011;29654;50.784;20.604;2023-03-14T14:32:03;3.92;;;3.25;;
43990;SDS011;29654;50.784;20.604;2023-03-14T14:37:21;7.65;;;3.78;;
43990;SDS011;29654;50.784;20.604;2023-03-14T14:42:27;4.18;;;3.00;;
43990;SDS011;29654;50.784;20.604;2023-03-14T14:47:32;3.95;;;3.13;;
43990;SDS011;29654;50.784;20.604;2023-03-14T14:52:44;4.20;;;3.17;;
43990;SDS011;29654;50.784;20.604;2023-03-14T14:57:50;4.63;;;3.22;;
43990;SDS011;29654;50.784;20.604;2023-03-14T15:02:54;4.93;;;3.40;;
43990;SDS011;29654;50.784;20.604;2023-03-14T15:08:02;3.47;;;3.10;;
43990;SDS011;29654;50.784;20.604;2023-03-14T15:13:09;5.78;;;2.97;;
43990;SDS011;29654;50.784;20.604;2023-03-14T15:18:12;3.22;;;2.72;;
43990;SDS011;29654;50.784;20.604;2023-03-14T15:23:19;3.03;;;2.63;;
43990;SDS011;29654;50.784;20.604;2023-03-14T15:28:23;2.95;;;2.40;;
43990;SDS011;29654;50.784;20.604;2023-03-14T15:33:27;3.88;;;3.35;;
43990;SDS011;29654;50.784;20.604;2023-03-14T15:38:31;3.75;;;2.80;;
43990;SDS011;29654;50.784;20.604;2023-03-14T15:43:33;3.47;;;2.78;;
43990;SDS011;29654;50.784;20.604;2023-03-14T15:48:36;3.05;;;2.75;;
43990;SDS011;29654;50.784;20.604;2023-03-14T15:53:40;4.80;;;3.10;;
43990;SDS011;29654;50.784;20.604;2023-03-14T15:58:44;3.08;;;2.80;;
43990;SDS011;29654;50.784;20.604;2023-03-14T16:03:47;6.78;;;4.03;;
43990;SDS011;29654;50.784;20.604;2023-03-14T16:08:54;5.10;;;3.97;;
43990;SDS011;29654;50.784;20.604;2023-03-14T16:13:57;4.60;;;3.72;;
43990;SDS011;29654;50.784;20.604;2023-03-14T16:18:59;4.25;;;3.85;;
43990;SDS011;29654;50.784;20.604;2023-03-14T16:24:04;4.28;;;3.50;;
43990;SDS011;29654;50.784;20.604;2023-03-14T16:29:07;4.07;;;3.67;;
43990;SDS011;29654;50.784;20.604;2023-03-14T16:34:09;4.55;;;4.15;;
43990;SDS011;29654;50.784;20.604;2023-03-14T16:39:13;6.15;;;4.70;;
43990;SDS011;29654;50.784;20.604;2023-03-14T16:44:16;5.80;;;4.40;;
43990;SDS011;29654;50.784;20.604;2023-03-14T16:49:19;4.18;;;3.78;;
43990;SDS011;29654;50.784;20.604;2023-03-14T16:54:22;5.70;;;4.43;;
43990;SDS011;29654;50.784;20.604;2023-03-14T16:59:25;5.28;;;4.47;;
43990;SDS011;29654;50.784;20.604;2023-03-14T17:04:28;6.45;;;4.55;;
43990;SDS011;29654;50.784;20.604;2023-03-14T17:09:32;4.28;;;3.88;;
43990;SDS011;29654;50.784;20.604;2023-03-14T17:14:35;3.63;;;3.20;;
43990;SDS011;29654;50.784;20.604;2023-03-14T17:19:37;5.72;;;3.28;;
43990;SDS011;29654;50.784;20.604;2023-03-14T17:24:41;3.95;;;3.45;;
43990;SDS011;29654;50.784;20.604;2023-03-14T17:29:44;3.85;;;3.45;;
43990;SDS011;29654;50.784;20.604;2023-03-14T17:34:47;9.82;;;7.63;;
43990;SDS011;29654;50.784;20.604;2023-03-14T17:39:50;6.47;;;4.32;;
43990;SDS011;29654;50.784;20.604;2023-03-14T17:44:53;4.10;;;3.70;;
43990;SDS011;29654;50.784;20.604;2023-03-14T17:49:55;4.20;;;3.17;;
43990;SDS011;29654;50.784;20.604;2023-03-14T17:55:00;6.10;;;3.83;;
43990;SDS011;29654;50.784;20.604;2023-03-14T18:00:03;3.83;;;3.45;;
43990;SDS011;29654;50.784;20.604;2023-03-14T18:05:08;5.97;;;3.85;;
43990;SDS011;29654;50.784;20.604;2023-03-14T18:10:12;5.57;;;3.80;;
43990;SDS011;29654;50.784;20.604;2023-03-14T18:15:16;4.53;;;3.60;;
43990;SDS011;29654;50.784;20.604;2023-03-14T18:20:19;5.18;;;4.25;;
43990;SDS011;29654;50.784;20.604;2023-03-14T18:25:23;4.80;;;4.30;;
43990;SDS011;29654;50.784;20.604;2023-03-14T18:30:25;4.68;;;3.72;;
43990;SDS011;29654;50.784;20.604;2023-03-14T18:35:28;4.18;;;3.58;;
43990;SDS011;29654;50.784;20.604;2023-03-14T18:40:32;5.85;;;4.45;;
43990;SDS011;29654;50.784;20.604;2023-03-14T18:45:35;4.25;;;3.85;;
43990;SDS011;29654;50.784;20.604;2023-03-14T18:50:38;4.07;;;3.67;;
43990;SDS011;29654;50.784;20.604;2023-03-14T18:55:43;6.07;;;4.82;;
43990;SDS011;29654;50.784;20.604;2023-03-14T19:00:46;3.80;;;3.25;;
43990;SDS011;29654;50.784;20.604;2023-03-14T19:05:50;5.20;;;4.35;;
43990;SDS011;29654;50.784;20.604;2023-03-14T19:10:55;3.58;;;3.20;;
43990;SDS011;29654;50.784;20.604;2023-03-14T19:16:00;4.40;;;4.00;;
43990;SDS011;29654;50.784;20.604;2023-03-14T19:21:03;5.82;;;4.28;;
43990;SDS011;29654;50.784;20.604;2023-03-14T19:26:09;5.40;;;4.57;;
43990;SDS011;29654;50.784;20.604;2023-03-14T19:31:15;5.65;;;3.90;;
43990;SDS011;29654;50.784;20.604;2023-03-14T19:36:22;4.00;;;3.42;;
43990;SDS011;29654;50.784;20.604;2023-03-14T19:41:28;5.20;;;4.47;;
43990;SDS011;29654;50.784;20.604;2023-03-14T19:46:31;4.22;;;3.65;;
43990;SDS011;29654;50.784;20.604;2023-03-14T19:51:35;5.90;;;3.60;;
43990;SDS011;29654;50.784;20.604;2023-03-14T19:56:39;5.95;;;4.15;;
43990;SDS011;29654;50.784;20.604;2023-03-14T20:01:42;4.85;;;3.58;;
43990;SDS011;29654;50.784;20.604;2023-03-14T20:06:47;4.20;;;3.80;;
43990;SDS011;29654;50.784;20.604;2023-03-14T20:11:54;5.07;;;4.57;;
43990;SDS011;29654;50.784;20.604;2023-03-14T20:16:56;4.95;;;4.20;;
43990;SDS011;29654;50.784;20.604;2023-03-14T20:21:59;5.57;;;4.20;;
43990;SDS011;29654;50.784;20.604;2023-03-14T20:27:03;10.00;;;4.78;;
43990;SDS011;29654;50.784;20.604;2023-03-14T20:32:06;5.57;;;4.85;;
43990;SDS011;29654;50.784;20.604;2023-03-14T20:37:09;6.32;;;5.10;;
43990;SDS011;29654;50.784;20.604;2023-03-14T20:42:14;7.25;;;4.82;;
43990;SDS011;29654;50.784;20.604;2023-03-14T20:47:17;7.05;;;5.60;;
43990;SDS011;29654;50.784;20.604;2023-03-14T20:52:20;6.72;;;5.07;;
43990;SDS011;29654;50.784;20.604;2023-03-14T20:57:25;6.00;;;5.05;;
43990;SDS011;29654;50.784;20.604;2023-03-14T21:02:27;6.97;;;5.93;;
43990;SDS011;29654;50.784;20.604;2023-03-14T21:07:30;7.20;;;6.50;;
43990;SDS011;29654;50.784;20.604;2023-03-14T21:12:41;7.05;;;4.82;;
43990;SDS011;29654;50.784;20.604;2023-03-14T21:17:44;6.53;;;5.82;;
43990;SDS011;29654;50.784;20.604;2023-03-14T21:22:47;6.50;;;5.07;;
43990;SDS011;29654;50.784;20.604;2023-03-14T21:27:50;6.65;;;6.05;;
43990;SDS011;29654;50.784;20.604;2023-03-14T21:32:53;7.38;;;6.60;;
43990;SDS011;29654;50.784;20.604;2023-03-14T21:37:55;8.40;;;6.60;;
43990;SDS011;29654;50.784;20.604;2023-03-14T21:42:59;7.97;;;6.30;;
43990;SDS011;29654;50.784;20.604;2023-03-14T21:48:02;7.40;;;6.70;;
43990;SDS011;29654;50.784;20.604;2023-03-14T21:53:05;7.78;;;6.97;;
43990;SDS011;29654;50.784;20.604;2023-03-14T21:58:09;7.57;;;6.60;;
43990;SDS011;29654;50.784;20.604;2023-03-14T22:03:13;8.40;;;7.50;;
43990;SDS011;29654;50.784;20.604;2023-03-14T22:08:18;9.40;;;7.45;;
43990;SDS011;29654;50.784;20.604;2023-03-14T22:13:23;9.35;;;7.82;;
43990;SDS011;29654;50.784;20.604;2023-03-14T22:18:26;8.88;;;8.00;;
43990;SDS011;29654;50.784;20.604;2023-03-14T22:23:29;7.80;;;7.03;;
43990;SDS011;29654;50.784;20.604;2023-03-14T22:28:33;7.40;;;6.70;;
43990;SDS011;29654;50.784;20.604;2023-03-14T22:33:36;7.65;;;6.63;;
43990;SDS011;29654;50.784;20.604;2023-03-14T22:38:38;8.32;;;7.18;;
43990;SDS011;29654;50.784;20.604;2023-03-14T22:43:42;8.85;;;7.32;;
43990;SDS011;29654;50.784;20.604;2023-03-14T22:48:45;8.70;;;7.80;;
43990;SDS011;29654;50.784;20.604;2023-03-14T22:53:48;8.60;;;7.78;;
43990;SDS011;29654;50.784;20.604;2023-03-14T22:58:52;8.23;;;7.10;;
43990;SDS011;29654;50.784;20.604;2023-03-14T23:03:57;9.63;;;7.53;;
43990;SDS011;29654;50.784;20.604;2023-03-14T23:08:59;8.75;;;7.63;;
43990;SDS011;29654;50.784;20.604;2023-03-14T23:14:07;7.53;;;6.57;;
43990;SDS011;29654;50.784;20.604;2023-03-14T23:19:15;7.03;;;6.32;;
43990;SDS011;29654;50.784;20.604;2023-03-14T23:24:24;7.50;;;6.63;;
43990;SDS011;29654;50.784;20.604;2023-03-14T23:29:28;7.53;;;6.18;;
43990;SDS011;29654;50.784;20.604;2023-03-14T23:34:31;7.32;;;6.22;;
43990;SDS011;29654;50.784;20.604;2023-03-14T23:39:36;6.38;;;5.30;;
43990;SDS011;29654;50.784;20.604;2023-03-14T23:44:40;6.03;;;5.15;;
43990;SDS011;29654;50.784;20.604;2023-03-14T23:49:42;5.95;;;5.18;;
43990;SDS011;29654;50.784;20.604;2023-03-14T23:54:45;4.10;;;3.70;;
43990;SDS011;29654;50.784;20.604;2023-03-14T23:59:49;5.80;;;4.38;;
